AZUH

Nakhchivan

Nakhchivan, Azerbaijan
METAR AZUH 191350Z 09004KT 9999 FEW035CB BKN040 09/M02 Q1007
Observed Flight Rules
Jan-19 @ 13:50 UTC (2 hours ago) Visual Flight Rules
Wind Visibility Clouds
90° at 4 knots 10,000+ meters
  • Few at 3,500' AGL
  • Broken at 4,000' AGL
Temperatures Readings
Current 9°C / 48°F
Dewpoint -2°C / 28°F
Humidity 46%
Altimeter 29.73" Hg
Pressure 1007 hPa
Elevation 855
METAR AZUH 191350Z 09004KT 9999 FEW035CB BKN040 09/M02 Q1007
Observed Flight Rules
Jan-19 @ 13:50 UTC
(2 hours ago)
VFR
Wind Visibility
90° at 4 knots 10,000+ meters
Clouds
  • Few at 3,500' AGL
  • Broken at 4,000' AGL
Temperature Dewpoint
9°C / 48°F -2°C / 28°F
Humidity Altimeter Pressure
46% 29.73" Hg 1007 hPa